createdAt,value
2019-03-22T00:02:25.786Z,17.97
2019-03-22T00:04:56.897Z,17.03
2019-03-22T00:07:27.928Z,16.37
2019-03-22T00:09:59.331Z,16.23
2019-03-22T00:12:30.468Z,16.87
2019-03-22T00:15:05.380Z,19.40
2019-03-22T00:17:36.482Z,16.13
2019-03-22T00:20:08.664Z,15.57
2019-03-22T00:22:39.776Z,14.80
2019-03-22T00:25:12.344Z,14.47
2019-03-22T00:27:43.733Z,15.60
2019-03-22T00:30:14.992Z,13.83
2019-03-22T00:32:46.322Z,15.80
2019-03-22T00:35:17.326Z,16.80
2019-03-22T00:37:48.388Z,14.80
2019-03-22T00:40:20.958Z,18.20
2019-03-22T00:42:52.008Z,16.07
2019-03-22T00:45:22.999Z,14.67
2019-03-22T00:47:55.229Z,17.87
2019-03-22T00:50:26.273Z,15.67
2019-03-22T00:52:57.291Z,15.40
2019-03-22T00:55:28.244Z,16.40
2019-03-22T00:57:59.082Z,15.00
2019-03-22T01:00:30.198Z,14.43
2019-03-22T01:03:01.393Z,14.57
2019-03-22T01:05:32.331Z,16.27
2019-03-22T01:08:03.164Z,15.57
2019-03-22T01:10:34.057Z,14.23
2019-03-22T01:13:05.152Z,14.43
2019-03-22T01:15:36.062Z,15.70
2019-03-22T01:18:07.432Z,15.10
2019-03-22T01:20:38.337Z,14.63
2019-03-22T01:23:09.250Z,16.50
2019-03-22T01:25:40.515Z,15.43
2019-03-22T01:28:12.840Z,15.87
2019-03-22T01:30:44.094Z,15.27
2019-03-22T01:33:14.988Z,15.40
2019-03-22T01:35:45.740Z,16.70
2019-03-22T01:38:16.993Z,15.90
2019-03-22T01:40:47.822Z,16.17
2019-03-22T01:43:20.030Z,15.80
2019-03-22T01:45:51.118Z,14.60
2019-03-22T01:48:21.755Z,17.70
2019-03-22T01:50:52.610Z,15.53
2019-03-22T01:53:23.374Z,17.00
2019-03-22T01:55:54.010Z,15.90
2019-03-22T01:58:25.990Z,15.13
2019-03-22T02:00:56.876Z,16.43
2019-03-22T02:03:27.741Z,17.10
2019-03-22T02:05:58.831Z,15.10
2019-03-22T02:08:29.566Z,14.30
2019-03-22T02:11:00.314Z,14.23
2019-03-22T02:13:31.220Z,13.53
2019-03-22T02:16:02.298Z,13.07
2019-03-22T02:18:34.719Z,15.80
2019-03-22T02:21:05.750Z,15.10
2019-03-22T02:23:36.522Z,14.23
2019-03-22T02:26:07.294Z,15.87
2019-03-22T02:28:39.318Z,14.60
2019-03-22T02:31:10.013Z,14.93
2019-03-22T02:33:41.188Z,14.97
2019-03-22T02:36:11.893Z,14.27
2019-03-22T02:38:42.697Z,13.97
2019-03-22T02:41:14.606Z,13.43
2019-03-22T02:43:45.415Z,14.00
2019-03-22T02:46:16.497Z,13.47
2019-03-22T02:48:47.304Z,13.10
2019-03-22T02:51:18.157Z,12.23
2019-03-22T02:53:48.888Z,13.37
2019-03-22T02:56:19.556Z,14.23
2019-03-22T02:58:50.210Z,13.77
2019-03-22T03:01:21.654Z,13.33
2019-03-22T03:03:54.114Z,11.57
2019-03-22T03:06:25.185Z,12.00
2019-03-22T03:08:56.598Z,12.43
2019-03-22T03:11:28.754Z,12.53
2019-03-22T03:13:59.506Z,12.90
2019-03-22T03:16:30.470Z,12.93
2019-03-22T03:19:01.455Z,12.37
2019-03-22T03:21:32.376Z,12.30
2019-03-22T03:24:03.246Z,12.93
2019-03-22T03:26:34.159Z,13.23
2019-03-22T03:29:04.881Z,12.77
2019-03-22T03:31:36.048Z,12.70
2019-03-22T03:34:06.788Z,11.17
2019-03-22T03:36:39.034Z,11.93
2019-03-22T03:39:10.579Z,12.03
2019-03-22T03:41:41.646Z,13.00
2019-03-22T03:44:12.423Z,12.17
2019-03-22T03:46:43.577Z,11.80
2019-03-22T03:49:14.338Z,11.37
2019-03-22T03:51:45.186Z,11.80
2019-03-22T03:54:17.481Z,12.53
2019-03-22T03:56:48.335Z,12.53
2019-03-22T03:59:19.517Z,12.23
2019-03-22T04:01:50.429Z,12.23
2019-03-22T04:04:22.260Z,12.50
2019-03-22T04:06:53.054Z,11.17
2019-03-22T04:09:25.192Z,11.83
2019-03-22T04:11:55.882Z,10.73
2019-03-22T04:14:26.727Z,11.50
2019-03-22T04:16:57.470Z,11.63
2019-03-22T04:19:28.658Z,10.97
2019-03-22T04:21:59.341Z,12.87
2019-03-22T04:24:31.015Z,11.97
2019-03-22T04:27:03.561Z,11.57
2019-03-22T04:29:34.812Z,11.67
2019-03-22T04:32:06.902Z,11.97
2019-03-22T04:34:39.186Z,12.50
2019-03-22T04:37:09.955Z,13.20
2019-03-22T04:39:41.060Z,13.90
2019-03-22T04:42:13.278Z,11.50
2019-03-22T04:44:44.135Z,11.87
2019-03-22T04:47:18.033Z,12.37
2019-03-22T04:49:49.680Z,12.20
2019-03-22T04:52:23.489Z,12.23
2019-03-22T04:54:56.863Z,13.63
2019-03-22T04:57:28.657Z,13.70
2019-03-22T05:00:01.095Z,13.47
2019-03-22T05:02:33.548Z,13.00
2019-03-22T05:05:05.435Z,14.27
2019-03-22T05:07:36.897Z,14.90
2019-03-22T05:10:13.948Z,14.00
2019-03-22T05:12:47.268Z,14.23
2019-03-22T05:15:28.535Z,13.60
2019-03-22T05:18:00.738Z,13.87
2019-03-22T05:20:33.744Z,13.20
2019-03-22T05:23:06.052Z,14.50
2019-03-22T05:25:37.980Z,13.93
2019-03-22T05:28:10.326Z,14.13
2019-03-22T05:31:09.642Z,12.97
2019-03-22T05:33:41.838Z,14.10
2019-03-22T05:36:12.686Z,14.70
2019-03-22T05:38:43.679Z,13.37
2019-03-22T05:41:15.913Z,12.90
2019-03-22T05:43:46.858Z,13.50
2019-03-22T05:46:17.709Z,12.60
2019-03-22T05:48:48.280Z,12.13
2019-03-22T05:51:20.240Z,12.80
2019-03-22T05:53:51.041Z,11.77
2019-03-22T05:56:21.635Z,12.23
2019-03-22T05:58:52.729Z,11.77
2019-03-22T06:01:23.786Z,12.77
2019-03-22T06:03:54.761Z,12.97
2019-03-22T06:06:26.660Z,11.80
2019-03-22T06:08:57.563Z,12.10
2019-03-22T06:11:28.348Z,12.37
2019-03-22T06:13:59.513Z,12.20
2019-03-22T06:16:30.274Z,12.40
2019-03-22T06:19:00.916Z,12.70
2019-03-22T06:21:38.740Z,12.30
2019-03-22T06:24:09.410Z,14.60
2019-03-22T06:26:40.213Z,12.37
2019-03-22T06:29:11.328Z,12.70
2019-03-22T06:31:42.398Z,14.20
2019-03-22T06:34:13.608Z,12.90
2019-03-22T06:36:44.655Z,11.63
2019-03-22T06:39:15.731Z,11.47
2019-03-22T06:41:46.716Z,12.73
2019-03-22T06:44:21.048Z,11.93
2019-03-22T06:46:51.844Z,13.30
2019-03-22T06:49:23.779Z,11.17
2019-03-22T06:51:54.565Z,11.53
2019-03-22T06:54:31.508Z,11.17
2019-03-22T06:56:58.410Z,10.60
2019-03-22T06:59:30.772Z,11.27
2019-03-22T07:02:01.750Z,11.77
2019-03-22T07:04:33.245Z,14.37
2019-03-22T07:07:04.338Z,11.77
2019-03-22T07:09:35.794Z,11.17
2019-03-22T07:12:06.688Z,11.30
2019-03-22T07:14:37.559Z,13.10
2019-03-22T07:17:09.726Z,11.13
2019-03-22T07:19:40.587Z,12.63
2019-03-22T07:22:11.532Z,12.33
2019-03-22T07:24:42.849Z,12.97
2019-03-22T07:27:13.708Z,13.30
2019-03-22T07:29:44.511Z,13.53
2019-03-22T07:32:15.284Z,15.70
2019-03-22T07:34:46.364Z,14.47
2019-03-22T07:37:17.708Z,14.10
2019-03-22T07:39:48.609Z,14.73
2019-03-22T07:42:20.061Z,15.40
2019-03-22T07:44:51.141Z,15.67
2019-03-22T07:47:22.155Z,16.63
2019-03-22T07:49:53.677Z,15.77
2019-03-22T07:52:25.067Z,17.83
2019-03-22T07:54:56.143Z,18.00
2019-03-22T07:57:27.159Z,19.23
2019-03-22T07:59:58.986Z,18.40
2019-03-22T08:02:31.603Z,20.03
2019-03-22T08:05:04.771Z,19.13
2019-03-22T08:07:35.641Z,17.60
2019-03-22T08:10:10.012Z,17.23
2019-03-22T08:12:41.567Z,17.43
2019-03-22T08:15:14.437Z,17.97
2019-03-22T08:17:45.617Z,18.27
2019-03-22T08:20:22.059Z,18.30
2019-03-22T08:22:58.620Z,19.37
2019-03-22T08:25:32.492Z,19.40
2019-03-22T08:28:04.494Z,19.70
2019-03-22T08:30:42.934Z,20.47
2019-03-22T08:33:09.092Z,20.43
2019-03-22T08:35:40.536Z,21.93
2019-03-22T08:38:12.426Z,21.53
2019-03-22T08:40:43.540Z,20.80
2019-03-22T08:43:14.803Z,20.00
2019-03-22T08:45:45.695Z,22.03
2019-03-22T08:48:16.540Z,20.93
2019-03-22T08:50:47.677Z,20.37
2019-03-22T08:53:18.861Z,20.27
2019-03-22T08:55:49.746Z,20.97
2019-03-22T08:58:20.980Z,24.80
2019-03-22T09:00:57.784Z,21.40
2019-03-22T09:03:25.474Z,23.47
2019-03-22T09:05:56.683Z,22.03
2019-03-22T09:08:28.306Z,22.73
2019-03-22T09:10:59.173Z,22.90
2019-03-22T09:13:30.156Z,22.43
2019-03-22T09:16:01.339Z,21.97
2019-03-22T09:18:32.207Z,21.67
2019-03-22T09:21:03.219Z,23.43
2019-03-22T09:23:34.440Z,24.93
2019-03-22T09:26:05.367Z,23.57
2019-03-22T09:28:36.259Z,21.80
2019-03-22T09:31:11.017Z,21.93
2019-03-22T09:33:40.241Z,20.77
2019-03-22T09:36:11.387Z,22.40
2019-03-22T09:38:42.315Z,22.43
2019-03-22T09:41:13.082Z,23.63
2019-03-22T09:43:44.367Z,23.57
2019-03-22T09:46:15.213Z,23.40
2019-03-22T09:48:46.040Z,22.53
2019-03-22T09:51:17.549Z,23.50
2019-03-22T09:53:49.090Z,21.67
2019-03-22T09:56:20.228Z,23.37
2019-03-22T09:58:51.781Z,23.50
2019-03-22T10:01:24.859Z,23.10
2019-03-22T10:03:56.152Z,24.17
2019-03-22T10:06:26.992Z,23.37
2019-03-22T10:08:58.150Z,22.97
2019-03-22T10:11:29.349Z,25.80
2019-03-22T10:14:00.823Z,24.20
2019-03-22T10:16:32.615Z,23.77
2019-03-22T10:19:03.863Z,22.60
2019-03-22T10:21:34.908Z,25.03
2019-03-22T10:24:06.813Z,24.53
2019-03-22T10:26:37.677Z,26.77
2019-03-22T10:29:08.418Z,23.73
2019-03-22T10:31:39.659Z,24.47
2019-03-22T10:34:10.692Z,25.30
2019-03-22T10:36:41.788Z,25.10
2019-03-22T10:39:13.051Z,24.60
2019-03-22T10:41:44.193Z,27.10
2019-03-22T10:44:15.134Z,23.90
2019-03-22T10:46:46.245Z,24.47
2019-03-22T10:49:17.294Z,22.47
2019-03-22T10:51:56.805Z,26.50
2019-03-22T10:54:20.792Z,23.33
2019-03-22T10:56:52.153Z,25.50
2019-03-22T10:59:23.525Z,25.13
2019-03-22T11:02:03.295Z,25.53
2019-03-22T11:04:28.813Z,24.97
2019-03-22T11:07:00.756Z,23.20
2019-03-22T11:09:33.002Z,25.87
2019-03-22T11:12:11.916Z,25.57
2019-03-22T11:14:36.606Z,24.80
2019-03-22T11:17:07.797Z,29.47
2019-03-22T11:19:38.937Z,24.90
2019-03-22T11:22:10.036Z,25.57
2019-03-22T11:24:40.664Z,22.27
2019-03-22T11:27:13.790Z,21.23
2019-03-22T11:29:45.038Z,23.77
2019-03-22T11:32:17.612Z,21.37
2019-03-22T11:34:48.455Z,22.90
2019-03-22T11:37:21.217Z,23.43
2019-03-22T11:39:52.107Z,22.97
2019-03-22T11:42:23.467Z,23.30
2019-03-22T11:44:56.145Z,21.87
2019-03-22T11:47:26.799Z,23.23
2019-03-22T11:49:58.055Z,20.77
2019-03-22T11:52:29.329Z,21.27
2019-03-22T11:55:00.088Z,19.13
2019-03-22T11:57:31.260Z,19.57
2019-03-22T12:00:01.931Z,19.80
2019-03-22T12:02:32.764Z,21.70
2019-03-22T12:05:07.753Z,20.50
2019-03-22T12:07:38.609Z,20.67
2019-03-22T12:10:11.589Z,20.73
2019-03-22T12:12:42.321Z,18.07
2019-03-22T12:15:13.372Z,15.67
2019-03-22T12:17:44.477Z,16.83
2019-03-22T12:20:16.429Z,14.03
2019-03-22T12:22:47.319Z,16.20
2019-03-22T12:25:21.661Z,14.80
2019-03-22T12:27:52.861Z,12.63
2019-03-22T12:30:27.958Z,12.90
2019-03-22T12:32:58.958Z,13.87
2019-03-22T12:35:33.040Z,11.50
2019-03-22T12:38:08.645Z,16.00
2019-03-22T12:40:40.593Z,11.33
2019-03-22T12:43:12.884Z,11.97
2019-03-22T12:45:45.395Z,12.30
2019-03-22T12:48:16.741Z,14.00
2019-03-22T12:50:48.356Z,11.70
2019-03-22T12:53:20.516Z,12.07
2019-03-22T12:55:51.874Z,10.50
2019-03-22T12:58:22.952Z,10.63
2019-03-22T13:00:54.252Z,10.30
2019-03-22T13:03:25.297Z,10.20
2019-03-22T13:05:56.137Z,11.07
2019-03-22T13:08:28.439Z,10.67
2019-03-22T13:10:59.366Z,11.20
2019-03-22T13:13:30.679Z,11.97
2019-03-22T13:16:01.514Z,13.33
2019-03-22T13:18:37.140Z,12.87
2019-03-22T13:21:07.676Z,12.10
2019-03-22T13:23:40.073Z,12.00
2019-03-22T13:26:11.474Z,14.63
2019-03-22T13:28:44.272Z,14.43
2019-03-22T13:31:15.498Z,14.83
2019-03-22T13:33:46.389Z,14.07
2019-03-22T13:36:18.781Z,15.67
2019-03-22T13:38:49.804Z,16.23
2019-03-22T13:41:21.250Z,15.07
2019-03-22T13:43:52.286Z,18.23
2019-03-22T13:46:27.992Z,16.67
2019-03-22T13:49:07.450Z,16.43
2019-03-22T13:51:39.612Z,14.93
2019-03-22T13:54:11.583Z,13.53
2019-03-22T13:56:42.999Z,15.43
2019-03-22T13:59:14.687Z,14.73
2019-03-22T14:01:46.289Z,14.80
2019-03-22T14:04:18.600Z,16.23
2019-03-22T14:06:50.114Z,15.50
2019-03-22T14:09:21.170Z,15.90
2019-03-22T14:11:53.515Z,15.07
2019-03-22T14:14:25.943Z,16.43
2019-03-22T14:16:57.086Z,14.87
2019-03-22T14:19:28.493Z,16.93
2019-03-22T14:22:00.736Z,16.60
2019-03-22T14:24:32.271Z,17.13
2019-03-22T14:27:03.654Z,17.47
2019-03-22T14:29:34.420Z,19.07
2019-03-22T14:32:07.831Z,16.50
2019-03-22T14:34:39.999Z,15.77
2019-03-22T14:37:11.808Z,13.90
2019-03-22T14:39:44.568Z,14.90
2019-03-22T14:42:19.522Z,16.77
2019-03-22T14:44:50.889Z,17.33
2019-03-22T14:47:22.168Z,16.27
2019-03-22T14:49:55.052Z,16.60
2019-03-22T14:52:26.431Z,16.77
2019-03-22T14:54:58.761Z,16.00
2019-03-22T14:57:30.393Z,15.43
2019-03-22T15:00:01.779Z,16.97
2019-03-22T15:02:33.280Z,15.20
2019-03-22T15:05:07.896Z,15.90
2019-03-22T15:07:39.052Z,16.57
2019-03-22T15:10:14.435Z,15.73
2019-03-22T15:12:45.865Z,15.90
2019-03-22T15:15:44.799Z,14.13
2019-03-22T15:18:39.919Z,14.00
2019-03-22T15:21:30.714Z,14.47
2019-03-22T15:24:13.141Z,13.97
2019-03-22T15:27:01.982Z,14.27
2019-03-22T15:29:51.615Z,11.93
2019-03-22T15:32:32.917Z,14.60
2019-03-22T15:38:14.300Z,14.33
2019-03-22T15:40:45.312Z,15.33
2019-03-22T15:43:16.244Z,19.23
2019-03-22T15:45:47.080Z,13.83
2019-03-22T15:48:17.833Z,14.63
2019-03-22T15:50:48.640Z,13.70
2019-03-22T15:53:22.965Z,15.50
2019-03-22T15:55:53.891Z,13.83
2019-03-22T15:58:24.727Z,15.77
2019-03-22T16:00:55.857Z,16.70
2019-03-22T16:03:26.832Z,14.40
2019-03-22T16:05:57.626Z,13.80
2019-03-22T16:08:28.814Z,16.60
2019-03-22T16:10:59.683Z,15.70
2019-03-22T16:13:30.660Z,14.70
2019-03-22T16:16:01.551Z,14.53
2019-03-22T16:18:32.485Z,14.23
2019-03-22T16:21:07.834Z,14.40
2019-03-22T16:23:38.970Z,12.80
2019-03-22T16:26:09.882Z,15.77
2019-03-22T16:29:11.650Z,13.30
2019-03-22T16:31:42.948Z,14.03
2019-03-22T16:34:14.300Z,15.17
2019-03-22T16:36:44.797Z,13.53
2019-03-22T16:39:15.327Z,13.97
2019-03-22T16:41:46.257Z,12.97
2019-03-22T16:44:18.148Z,15.90
2019-03-22T16:46:48.778Z,13.93
2019-03-22T16:49:19.974Z,13.27
2019-03-22T16:51:51.686Z,12.37
2019-03-22T16:54:23.397Z,13.03
2019-03-22T16:56:55.352Z,13.73
2019-03-22T16:59:26.381Z,13.30
2019-03-22T17:01:57.278Z,13.37
2019-03-22T17:04:27.903Z,13.00
2019-03-22T17:06:58.512Z,13.90
2019-03-22T17:09:29.199Z,15.07
2019-03-22T17:11:59.638Z,14.40
2019-03-22T17:14:30.723Z,14.33
2019-03-22T17:17:01.235Z,14.40
2019-03-22T17:19:32.594Z,13.80
2019-03-22T17:22:03.900Z,13.07
2019-03-22T17:24:34.758Z,13.43
2019-03-22T17:27:05.442Z,13.53
2019-03-22T17:29:35.977Z,13.07
2019-03-22T17:32:06.891Z,14.43
2019-03-22T17:34:38.959Z,14.90
2019-03-22T17:37:09.416Z,16.33
2019-03-22T17:39:40.486Z,14.70
2019-03-22T17:42:11.045Z,15.20
2019-03-22T17:44:41.602Z,14.63
2019-03-22T17:47:12.878Z,14.47
2019-03-22T17:49:48.370Z,14.30
2019-03-22T17:52:17.611Z,17.17
2019-03-22T17:54:48.282Z,15.37
2019-03-22T17:57:20.198Z,15.70
2019-03-22T17:59:51.958Z,15.00
2019-03-22T18:02:22.494Z,15.83
2019-03-22T18:04:52.863Z,17.33
2019-03-22T18:07:23.652Z,14.67
2019-03-22T18:09:54.034Z,14.90
2019-03-22T18:12:24.429Z,15.47
2019-03-22T18:14:55.169Z,15.73
2019-03-22T18:17:26.673Z,16.33
2019-03-22T18:19:57.181Z,14.97
2019-03-22T18:22:28.004Z,16.50
2019-03-22T18:24:59.645Z,14.80
2019-03-22T18:27:30.226Z,15.50
2019-03-22T18:30:02.291Z,15.10
2019-03-22T18:32:33.429Z,17.17
2019-03-22T18:35:04.868Z,18.27
2019-03-22T18:37:35.428Z,16.10
2019-03-22T18:40:09.049Z,17.07
2019-03-22T18:42:39.939Z,21.23
2019-03-22T18:45:11.029Z,15.23
2019-03-22T18:47:41.559Z,16.43
2019-03-22T18:50:12.436Z,16.47
2019-03-22T18:52:43.451Z,15.90
2019-03-22T18:55:14.757Z,14.03
2019-03-22T18:57:50.940Z,15.30
2019-03-22T19:00:25.120Z,15.80
2019-03-22T19:02:59.657Z,16.20
2019-03-22T19:05:47.623Z,16.03
2019-03-22T19:08:17.280Z,15.50
2019-03-22T19:10:51.607Z,14.90
2019-03-22T19:13:30.368Z,15.63
2019-03-22T19:15:54.694Z,15.23
2019-03-22T19:18:28.832Z,15.10
2019-03-22T19:20:59.335Z,15.23
2019-03-22T19:23:33.988Z,18.67
2019-03-22T19:26:05.777Z,15.20
2019-03-22T19:28:36.509Z,15.40
2019-03-22T19:31:09.088Z,15.27
2019-03-22T19:33:46.019Z,14.67
2019-03-22T19:36:17.651Z,15.70
2019-03-22T19:38:48.843Z,18.10
2019-03-22T19:41:23.497Z,19.47
2019-03-22T19:43:54.614Z,18.73
2019-03-22T19:46:26.797Z,19.50
2019-03-22T19:48:57.934Z,19.30
2019-03-22T19:51:29.671Z,20.90
2019-03-22T19:54:00.161Z,22.53
2019-03-22T19:56:31.176Z,20.87
2019-03-22T19:59:03.108Z,21.10
2019-03-22T20:01:35.381Z,25.17
2019-03-22T20:04:06.386Z,24.03
2019-03-22T20:06:37.619Z,22.07
2019-03-22T20:09:10.272Z,24.53
2019-03-22T20:11:41.628Z,22.40
2019-03-22T20:14:12.262Z,22.83
2019-03-22T20:16:43.386Z,24.67
2019-03-22T20:19:14.147Z,24.53
2019-03-22T20:21:45.112Z,29.57
2019-03-22T20:24:20.031Z,25.43
2019-03-22T20:26:52.676Z,24.20
2019-03-22T20:29:25.452Z,20.83
2019-03-22T20:31:57.490Z,20.90
2019-03-22T20:34:28.301Z,19.53
2019-03-22T20:37:00.523Z,19.97
2019-03-22T20:39:31.850Z,19.13
2019-03-22T20:42:02.723Z,19.77
2019-03-22T20:44:34.630Z,19.00
2019-03-22T20:47:06.976Z,19.90
2019-03-22T20:49:37.396Z,20.97
2019-03-22T20:52:07.868Z,20.27
2019-03-22T20:54:38.936Z,20.30
2019-03-22T20:57:09.562Z,18.83
2019-03-22T20:59:40.220Z,19.03
2019-03-22T21:02:11.079Z,19.43
2019-03-22T21:04:41.504Z,18.47
2019-03-22T21:07:11.976Z,18.90
2019-03-22T21:09:43.998Z,18.73
2019-03-22T21:12:14.414Z,19.60
2019-03-22T21:14:44.778Z,19.10
2019-03-22T21:17:16.358Z,20.00
2019-03-22T21:19:46.826Z,19.70
2019-03-22T21:22:17.276Z,17.73
2019-03-22T21:24:48.280Z,18.80
2019-03-22T21:27:18.816Z,19.50
2019-03-22T21:29:49.245Z,20.47
2019-03-22T21:32:19.583Z,18.73
2019-03-22T21:34:50.218Z,21.13
2019-03-22T21:37:20.648Z,19.57
2019-03-22T21:39:51.100Z,19.07
2019-03-22T21:42:22.780Z,19.30
2019-03-22T21:44:53.259Z,19.83
2019-03-22T21:47:23.675Z,19.87
2019-03-22T21:49:54.422Z,19.30
2019-03-22T21:52:24.851Z,20.10
2019-03-22T21:54:55.255Z,19.50
2019-03-22T21:57:26.029Z,19.10
2019-03-22T21:59:57.816Z,20.13
2019-03-22T22:02:28.155Z,19.60
2019-03-22T22:04:58.878Z,19.13
2019-03-22T22:07:29.195Z,19.63
2019-03-22T22:09:59.747Z,19.47
2019-03-22T22:12:30.546Z,19.00
2019-03-22T22:15:00.988Z,19.67
2019-03-22T22:17:31.353Z,18.77
2019-03-22T22:20:01.985Z,20.03
2019-03-22T22:22:32.678Z,19.07
2019-03-22T22:25:04.247Z,18.87
2019-03-22T22:27:34.799Z,19.37
2019-03-22T22:30:05.941Z,19.53
2019-03-22T22:32:36.390Z,20.73
2019-03-22T22:35:08.178Z,21.23
2019-03-22T22:37:38.681Z,20.17
2019-03-22T22:40:10.720Z,21.20
2019-03-22T22:42:41.202Z,22.20
2019-03-22T22:45:13.658Z,21.27
2019-03-22T22:47:44.397Z,20.80
2019-03-22T22:50:15.067Z,19.90
2019-03-22T22:52:45.562Z,19.57
2019-03-22T22:55:16.463Z,22.40
2019-03-22T22:57:46.934Z,22.23
2019-03-22T23:00:18.641Z,20.23
2019-03-22T23:02:49.329Z,20.40
2019-03-22T23:05:21.872Z,20.97
2019-03-22T23:07:52.782Z,21.10
2019-03-22T23:10:25.180Z,21.00
2019-03-22T23:12:55.694Z,21.80
2019-03-22T23:15:26.519Z,22.23
2019-03-22T23:17:57.062Z,21.60
2019-03-22T23:20:27.720Z,20.50
2019-03-22T23:22:58.595Z,20.00
2019-03-22T23:25:29.356Z,22.07
2019-03-22T23:27:59.776Z,20.90
2019-03-22T23:30:30.191Z,22.00
2019-03-22T23:33:00.810Z,21.00
2019-03-22T23:35:31.276Z,20.03
2019-03-22T23:38:01.993Z,19.13
2019-03-22T23:40:33.859Z,21.33
2019-03-22T23:43:05.658Z,20.10
2019-03-22T23:45:36.243Z,20.20
2019-03-22T23:48:07.075Z,21.30
2019-03-22T23:50:37.584Z,18.07
2019-03-22T23:53:08.071Z,19.73
2019-03-22T23:55:38.815Z,18.10
2019-03-22T23:58:09.437Z,19.00
